createdAt,value
2023-02-19T00:02:42.615Z,958.8
2023-02-19T00:07:44.774Z,958.79
2023-02-19T00:12:46.034Z,958.85
2023-02-19T00:17:47.664Z,958.72
2023-02-19T00:22:49.014Z,958.66
2023-02-19T00:27:51.148Z,958.6
2023-02-19T00:32:52.698Z,958.63
2023-02-19T00:37:54.651Z,958.57
2023-02-19T00:42:56.197Z,958.49
2023-02-19T00:47:58.363Z,958.52
2023-02-19T00:53:00.357Z,958.55
2023-02-19T00:58:02.528Z,958.46
2023-02-19T01:03:04.104Z,958.32
2023-02-19T01:08:05.418Z,958.18
2023-02-19T01:13:07.239Z,958.21
2023-02-19T01:18:08.383Z,958.16
2023-02-19T01:23:10.349Z,958.11
2023-02-19T01:28:11.696Z,958.08
2023-02-19T01:33:13.619Z,958.02
2023-02-19T01:38:15.651Z,958.02
2023-02-19T01:43:17.728Z,957.98
2023-02-19T01:48:19.662Z,957.87
2023-02-19T01:53:21.515Z,957.92
2023-02-19T01:58:23.537Z,957.83
2023-02-19T02:03:24.852Z,957.88
2023-02-19T02:08:26.727Z,957.79
2023-02-19T02:13:28.490Z,957.72
2023-02-19T02:18:29.628Z,957.69
2023-02-19T02:23:31.076Z,957.69
2023-02-19T02:28:32.713Z,957.69
2023-02-19T02:33:34.294Z,957.6
2023-02-19T02:38:35.914Z,957.62
2023-02-19T02:43:37.645Z,957.55
2023-02-19T02:48:39.514Z,957.54
2023-02-19T02:53:40.994Z,957.43
2023-02-19T02:58:42.262Z,957.43
2023-02-19T03:03:44.111Z,957.24
2023-02-19T03:08:46.081Z,957.22
2023-02-19T03:13:47.439Z,957.05
2023-02-19T03:18:49.523Z,957.07
2023-02-19T03:23:51.258Z,957.03
2023-02-19T03:28:53.135Z,957.04
2023-02-19T03:33:54.160Z,957.05
2023-02-19T03:38:55.967Z,957.09
2023-02-19T03:43:57.606Z,957.02
2023-02-19T03:48:59.313Z,957.18
2023-02-19T03:54:01.212Z,957.17
2023-02-19T03:59:03.113Z,957.3
2023-02-19T04:04:04.327Z,956.99
2023-02-19T04:09:05.616Z,957.04
2023-02-19T04:14:07.149Z,957.14
2023-02-19T04:19:09.092Z,957.22
2023-02-19T04:24:10.655Z,957.22
2023-02-19T04:29:12.475Z,957.09
2023-02-19T04:34:14.054Z,957.05
2023-02-19T04:39:16.089Z,957.1
2023-02-19T04:44:17.485Z,957.18
2023-02-19T04:49:18.852Z,957.17
2023-02-19T04:54:20.660Z,957.19
2023-02-19T04:59:22.654Z,957.32
2023-02-19T05:04:24.676Z,957.23
2023-02-19T05:09:26.501Z,957.19
2023-02-19T05:14:28.458Z,957.17
2023-02-19T05:19:30.320Z,957.24
2023-02-19T05:24:32.395Z,957.29
2023-02-19T05:29:33.462Z,957.25
2023-02-19T05:34:35.560Z,957.27
2023-02-19T05:39:36.860Z,957.32
2023-02-19T05:44:38.687Z,957.41
2023-02-19T05:49:40.637Z,957.45
2023-02-19T05:54:42.803Z,957.38
2023-02-19T05:59:44.144Z,957.39
2023-02-19T06:04:46.181Z,957.55
2023-02-19T06:09:47.740Z,957.68
2023-02-19T06:14:49.635Z,957.63
2023-02-19T06:19:51.747Z,957.65
2023-02-19T06:24:53.356Z,957.61
2023-02-19T06:29:55.433Z,957.78
2023-02-19T07:45:20.146Z,958.62
2023-02-19T08:05:27.231Z,958.78
2023-02-19T08:10:28.608Z,958.92
2023-02-19T08:15:30.066Z,958.92
2023-02-19T08:20:31.280Z,959.09
2023-02-19T08:25:32.653Z,959.14
2023-02-19T08:30:34.825Z,959.14
2023-02-19T08:35:36.607Z,959.12
2023-02-19T08:40:38.473Z,959.26
2023-02-19T08:45:40.477Z,959.29
2023-02-19T08:50:42.125Z,959.4
2023-02-19T08:55:43.361Z,959.43
2023-02-19T09:00:45.326Z,959.37
2023-02-19T09:05:47.013Z,959.41
2023-02-19T09:10:48.421Z,959.37
2023-02-19T09:15:49.639Z,959.47
2023-02-19T09:20:51.768Z,959.41
2023-02-19T09:25:53.366Z,959.47
2023-02-19T09:30:55.336Z,959.46
2023-02-19T09:35:57.248Z,959.55
2023-02-19T09:40:58.714Z,959.39
2023-02-19T09:46:00.155Z,959.42
2023-02-19T09:51:08.504Z,959.37
2023-02-19T09:56:10.165Z,959.69
2023-02-19T10:01:11.902Z,959.5
2023-02-19T10:06:12.738Z,959.46
2023-02-19T10:11:14.496Z,959.29
2023-02-19T10:16:16.404Z,959.65
2023-02-19T10:21:17.793Z,959.48
2023-02-19T10:26:20.054Z,959.58
2023-02-19T10:31:21.750Z,959.64
2023-02-19T10:36:23.555Z,959.72
2023-02-19T10:41:25.328Z,959.87
2023-02-19T10:46:27.136Z,959.72
2023-02-19T10:51:29.041Z,959.77
2023-02-19T10:56:30.331Z,959.71
2023-02-19T11:01:32.326Z,959.8
2023-02-19T11:06:35.034Z,959.92
2023-02-19T11:11:35.537Z,959.86
2023-02-19T11:16:37.409Z,959.77
2023-02-19T11:21:39.415Z,959.54
2023-02-19T11:26:40.798Z,959.44
2023-02-19T11:31:42.388Z,959.44
2023-02-19T11:36:43.909Z,959.58
2023-02-19T11:41:45.789Z,959.68
2023-02-19T11:46:47.757Z,959.6
2023-02-19T11:51:52.232Z,959.79
2023-02-19T11:57:01.312Z,959.72
2023-02-19T12:01:53.388Z,959.72
2023-02-19T12:06:55.413Z,959.83
2023-02-19T12:11:56.622Z,959.78
2023-02-19T12:16:57.864Z,959.76
2023-02-19T12:21:59.564Z,959.79
2023-02-19T12:27:00.917Z,959.92
2023-02-19T12:32:02.493Z,959.78
2023-02-19T12:37:04.545Z,959.84
2023-02-19T12:42:06.586Z,959.91
2023-02-19T12:47:07.894Z,959.97
2023-02-19T12:52:09.924Z,959.95
2023-02-19T12:57:11.596Z,959.92
2023-02-19T13:02:13.707Z,960.01
2023-02-19T13:07:15.760Z,960.1
2023-02-19T13:12:17.782Z,960.21
2023-02-19T13:17:19.350Z,960.23
2023-02-19T13:22:20.673Z,960.22
2023-02-19T13:27:22.116Z,960.13
2023-02-19T13:32:23.864Z,960.07
2023-02-19T13:37:25.316Z,960.13
2023-02-19T13:42:27.216Z,960.06
2023-02-19T13:47:28.954Z,960.13
2023-02-19T13:52:30.247Z,960.14
2023-02-19T13:57:32.227Z,960.27
2023-02-19T14:02:33.423Z,960.15
2023-02-19T14:07:35.095Z,960.23
2023-02-19T14:12:36.577Z,960.37
2023-02-19T14:17:38.112Z,960.3
2023-02-19T14:22:39.389Z,960.4
2023-02-19T14:27:41.347Z,960.49
2023-02-19T14:32:43.665Z,960.25
2023-02-19T14:37:44.938Z,960.49
2023-02-19T14:42:46.321Z,960.49
2023-02-19T14:47:48.048Z,960.35
2023-02-19T14:52:49.655Z,960.44
2023-02-19T14:57:51.465Z,960.46
2023-02-19T15:02:53.294Z,960.66
2023-02-19T15:07:54.767Z,960.55
2023-02-19T15:12:55.981Z,960.64
2023-02-19T15:17:57.789Z,960.66
2023-02-19T15:22:59.880Z,960.74
2023-02-19T15:28:01.540Z,960.85
2023-02-19T15:33:03.049Z,960.93
2023-02-19T15:38:04.420Z,961.01
2023-02-19T15:43:05.723Z,961.1
2023-02-19T15:48:07.531Z,961.12
2023-02-19T15:53:08.758Z,961.21
2023-02-19T15:58:10.224Z,961.24
2023-02-19T16:03:11.498Z,961.2
2023-02-19T16:08:13.106Z,961.17
2023-02-19T16:13:14.823Z,961.15
2023-02-19T16:18:16.235Z,961.18
2023-02-19T16:23:17.902Z,961.28
2023-02-19T16:28:19.497Z,961.29
2023-02-19T16:33:21.124Z,961.38
2023-02-19T16:38:22.819Z,961.34
2023-02-19T16:43:24.360Z,961.44
2023-02-19T16:48:25.955Z,961.59
2023-02-19T16:53:27.875Z,961.66
2023-02-19T16:58:29.540Z,961.69
2023-02-19T17:03:31.275Z,961.78
2023-02-19T17:08:33.046Z,961.83
2023-02-19T17:13:34.306Z,962.06
2023-02-19T17:18:35.661Z,962.03
2023-02-19T17:23:37.442Z,962.02
2023-02-19T17:28:41.366Z,962.03
2023-02-19T17:33:40.657Z,962.14
2023-02-19T17:38:42.560Z,962.16
2023-02-19T17:43:44.640Z,962.19
2023-02-19T17:48:46.040Z,962.26
2023-02-19T17:53:47.367Z,962.4
2023-02-19T17:58:49.369Z,962.58
2023-02-19T18:03:50.691Z,962.65
2023-02-19T18:08:52.433Z,962.67
2023-02-19T18:13:53.696Z,962.79
2023-02-19T18:18:55.324Z,962.88
2023-02-19T18:23:57.149Z,963.03
2023-02-19T18:28:58.600Z,963.17
2023-02-19T18:34:00.312Z,963.32
2023-02-19T18:39:02.461Z,963.34
2023-02-19T18:44:04.282Z,963.4
2023-02-19T18:49:06.110Z,963.41
2023-02-19T18:54:07.324Z,963.41
2023-02-19T18:59:08.838Z,963.35
2023-02-19T19:04:10.792Z,963.37
2023-02-19T19:09:12.331Z,963.41
2023-02-19T19:14:13.773Z,963.45
2023-02-19T19:19:15.218Z,963.52
2023-02-19T19:24:16.652Z,963.5
2023-02-19T19:29:18.002Z,963.51
2023-02-19T19:34:19.447Z,963.55
2023-02-19T19:39:30.542Z,963.59
2023-02-19T19:44:23.253Z,963.56
2023-02-19T19:49:24.949Z,963.58
2023-02-19T19:54:27.120Z,963.56
2023-02-19T19:59:28.668Z,963.58
2023-02-19T20:04:30.303Z,963.7
2023-02-19T20:09:32.198Z,963.73
2023-02-19T20:14:34.112Z,963.62
2023-02-19T20:19:36.069Z,963.65
2023-02-19T20:24:37.883Z,963.7
2023-02-19T20:29:40.062Z,963.68
2023-02-19T20:34:41.522Z,963.76
2023-02-19T20:39:42.701Z,963.79
2023-02-19T20:44:43.914Z,963.83
2023-02-19T20:49:46.045Z,963.77
2023-02-19T20:54:47.615Z,963.77
2023-02-19T20:59:49.743Z,963.87
2023-02-19T21:04:51.452Z,963.86
2023-02-19T21:09:53.434Z,963.86
2023-02-19T21:14:55.461Z,963.94
2023-02-19T21:45:05.506Z,963.97
2023-02-19T21:50:07.334Z,963.85
2023-02-19T21:55:08.871Z,963.83
2023-02-19T22:15:14.908Z,963.75
2023-02-19T22:25:17.995Z,963.83
2023-02-19T22:30:19.266Z,963.84
2023-02-19T22:45:24.801Z,963.82
2023-02-19T22:55:28.526Z,964.01
2023-02-19T23:11:45.890Z,964.03
2023-02-19T23:15:35.362Z,964.12
2023-02-19T23:20:37.036Z,964.19
2023-02-19T23:25:38.807Z,964.25
2023-02-19T23:30:40.319Z,964.24
2023-02-19T23:35:41.861Z,964.18
2023-02-19T23:40:43.940Z,964.2
2023-02-19T23:45:46.054Z,964.23
2023-02-19T23:50:47.655Z,964.3
2023-02-19T23:55:49.524Z,964.21
